createdAt,value
2022-09-28T00:03:07.801Z,0.70
2022-09-28T00:08:10.493Z,0.60
2022-09-28T00:13:13.154Z,0.50
2022-09-28T00:18:17.105Z,0.73
2022-09-28T00:23:19.739Z,0.80
2022-09-28T00:28:22.394Z,0.50
2022-09-28T00:33:26.569Z,0.70
2022-09-28T00:38:30.278Z,0.80
2022-09-28T00:43:32.933Z,0.60
2022-09-28T00:48:40.923Z,0.70
2022-09-28T00:53:45.349Z,0.80
2022-09-28T00:58:51.241Z,0.80
2022-09-28T01:03:55.331Z,0.60
2022-09-28T01:09:02.545Z,0.80
2022-09-28T01:14:08.967Z,0.70
2022-09-28T01:19:31.492Z,0.60
2022-09-28T01:24:42.895Z,0.60
2022-09-28T01:29:52.690Z,0.70
2022-09-28T01:34:59.583Z,0.60
2022-09-28T01:40:03.982Z,0.70
2022-09-28T01:45:13.221Z,0.60
2022-09-28T01:50:19.248Z,0.60
2022-09-28T01:55:29.374Z,0.63
2022-09-28T02:00:39.382Z,0.63
2022-09-28T02:05:49.593Z,0.67
2022-09-28T02:10:56.936Z,0.73
2022-09-28T02:16:05.554Z,0.70
2022-09-28T02:21:13.588Z,0.60
2022-09-28T02:26:19.476Z,0.83
2022-09-28T02:31:26.456Z,0.97
2022-09-28T02:36:31.407Z,0.80
2022-09-28T02:41:52.616Z,0.90
2022-09-28T02:47:01.461Z,0.90
2022-09-28T02:52:24.516Z,0.80
2022-09-28T02:57:38.363Z,0.97
2022-09-28T03:02:55.799Z,1.20
2022-09-28T03:08:00.875Z,1.20
2022-09-28T03:13:05.319Z,1.20
2022-09-28T03:18:09.504Z,1.43
2022-09-28T03:23:24.401Z,2.00
2022-09-28T03:28:28.196Z,11.00
2022-09-28T03:33:32.187Z,2.77
2022-09-28T03:38:34.883Z,2.43
2022-09-28T03:43:37.536Z,2.23
2022-09-28T03:48:41.546Z,2.33
2022-09-28T03:53:44.195Z,3.07
2022-09-28T03:58:46.937Z,3.00
2022-09-28T04:03:55.246Z,3.27
2022-09-28T04:08:58.083Z,3.40
2022-09-28T04:14:00.912Z,3.10
2022-09-28T04:19:05.029Z,3.57
2022-09-28T04:24:07.880Z,4.60
2022-09-28T04:29:16.986Z,5.10
2022-09-28T04:34:23.356Z,5.77
2022-09-28T04:39:26.012Z,5.90
2022-09-28T04:44:28.740Z,6.17
2022-09-28T04:49:35.341Z,6.37
2022-09-28T04:54:38.035Z,6.27
2022-09-28T04:59:40.689Z,6.13
2022-09-28T05:04:44.681Z,5.30
2022-09-28T05:09:47.338Z,5.27
2022-09-28T05:14:49.978Z,5.30
2022-09-28T05:19:53.918Z,5.53
2022-09-28T05:24:58.214Z,5.63
2022-09-28T05:30:00.900Z,5.70
2022-09-28T05:35:06.273Z,6.60
2022-09-28T05:40:10.010Z,7.53
2022-09-28T05:45:12.698Z,8.33
2022-09-28T05:50:16.930Z,8.37
2022-09-28T05:55:19.546Z,9.73
2022-09-28T06:00:23.131Z,9.43
2022-09-28T06:05:27.266Z,9.30
2022-09-28T06:10:29.934Z,8.33
2022-09-28T06:15:34.603Z,7.90
2022-09-28T06:20:41.002Z,7.57
2022-09-28T06:25:43.652Z,6.93
2022-09-28T06:30:48.164Z,7.67
2022-09-28T06:35:52.179Z,7.67
2022-09-28T06:40:54.875Z,7.20
2022-09-28T06:45:57.729Z,6.73
2022-09-28T06:51:02.260Z,5.80
2022-09-28T06:56:06.900Z,5.03
2022-09-28T07:01:11.984Z,4.90
2022-09-28T07:06:16.119Z,4.90
2022-09-28T07:11:20.359Z,4.70
2022-09-28T07:16:27.229Z,5.30
2022-09-28T07:21:35.913Z,5.13
2022-09-28T07:26:38.613Z,5.00
2022-09-28T07:31:41.406Z,5.03
2022-09-28T07:36:45.455Z,4.93
2022-09-28T07:41:48.822Z,5.50
2022-09-28T07:46:51.528Z,5.43
2022-09-28T07:51:56.427Z,5.63
2022-09-28T07:56:59.111Z,5.13
2022-09-28T08:02:01.847Z,5.27
2022-09-28T08:07:10.348Z,5.73
2022-09-28T08:12:13.883Z,4.93
2022-09-28T08:17:16.631Z,5.40
2022-09-28T08:22:21.096Z,5.13
2022-09-28T08:27:23.731Z,4.67
2022-09-28T08:32:26.375Z,4.60
2022-09-28T08:37:30.344Z,5.97
2022-09-28T08:42:36.544Z,7.40
2022-09-28T08:48:06.429Z,5.57
2022-09-28T08:53:24.811Z,4.67
2022-09-28T08:58:33.594Z,4.00
2022-09-28T09:03:39.673Z,4.10
2022-09-28T09:08:57.240Z,2.70
2022-09-28T09:14:36.530Z,2.00
2022-09-28T09:19:49.405Z,2.30
2022-09-28T09:25:00.369Z,1.70
2022-09-28T09:30:07.201Z,1.60
2022-09-28T09:36:01.186Z,1.27
2022-09-28T09:41:18.374Z,1.30
2022-09-28T09:46:30.556Z,1.47
2022-09-28T09:51:42.600Z,1.30
2022-09-28T09:56:53.232Z,1.30
2022-09-28T10:01:56.941Z,1.90
2022-09-28T10:07:04.538Z,2.20
2022-09-28T10:12:15.131Z,2.00
2022-09-28T10:17:20.124Z,1.90
2022-09-28T10:22:25.950Z,1.67
2022-09-28T10:27:34.690Z,1.50
2022-09-28T10:32:39.368Z,1.10
2022-09-28T10:37:52.199Z,1.20
2022-09-28T10:43:06.757Z,1.00
2022-09-28T10:48:18.752Z,1.00
2022-09-28T10:53:21.964Z,1.00
2022-09-28T10:58:28.851Z,1.10
2022-09-28T11:03:32.546Z,1.30
2022-09-28T11:08:39.504Z,1.20
2022-09-28T11:13:46.320Z,1.00
2022-09-28T11:18:49.460Z,1.47
2022-09-28T11:24:01.854Z,1.67
2022-09-28T11:29:07.439Z,1.90
2022-09-28T11:34:17.284Z,1.90
2022-09-28T11:39:28.101Z,2.30
2022-09-28T11:44:41.261Z,1.60
2022-09-28T11:49:47.620Z,1.10
2022-09-28T11:54:55.852Z,1.75
2022-09-28T12:00:03.675Z,1.80
2022-09-28T12:05:18.421Z,1.20
2022-09-28T12:10:36.830Z,1.10
2022-09-28T12:16:16.831Z,1.20
2022-09-28T12:21:22.646Z,2.03
2022-09-28T12:26:37.230Z,0.77
2022-09-28T12:31:53.566Z,0.60
2022-09-28T12:37:16.133Z,0.60
2022-09-28T12:42:31.571Z,0.80
2022-09-28T12:47:57.700Z,0.70
2022-09-28T12:53:19.341Z,0.90
2022-09-28T12:58:40.686Z,0.63
2022-09-28T13:04:00.151Z,0.90
2022-09-28T13:09:21.577Z,0.65
2022-09-28T13:14:49.039Z,1.00
2022-09-28T13:19:59.265Z,0.88
2022-09-28T13:25:06.645Z,0.82
2022-09-28T13:30:14.211Z,0.80
2022-09-28T13:35:20.296Z,0.40
2022-09-28T13:41:09.846Z,0.38
2022-09-28T13:46:22.834Z,0.60
2022-09-28T13:51:34.250Z,0.40
2022-09-28T13:56:41.851Z,0.70
2022-09-28T14:01:53.051Z,0.70
2022-09-28T14:07:09.734Z,0.77
2022-09-28T14:12:43.868Z,0.80
2022-09-28T14:17:58.698Z,1.10
2022-09-28T14:23:29.155Z,1.00
2022-09-28T14:28:43.163Z,0.60
2022-09-28T14:33:56.788Z,0.80
2022-09-28T14:39:18.624Z,1.70
2022-09-28T14:44:22.073Z,0.80
2022-09-28T14:49:44.790Z,0.98
2022-09-28T14:54:54.202Z,0.70
2022-09-28T14:59:59.892Z,0.70
2022-09-28T15:05:14.784Z,0.60
2022-09-28T15:10:31.183Z,0.55
2022-09-28T15:15:36.464Z,0.45
2022-09-28T15:20:41.564Z,0.50
2022-09-28T15:25:53.549Z,0.80
2022-09-28T15:31:01.302Z,0.80
2022-09-28T15:36:07.582Z,0.50
2022-09-28T15:41:11.802Z,0.70
2022-09-28T15:46:18.341Z,0.82
2022-09-28T15:59:03.463Z,1.00
2022-09-28T16:15:58.139Z,1.23
2022-09-28T16:21:26.174Z,1.47
2022-09-28T16:26:33.450Z,1.40
2022-09-28T16:31:37.810Z,1.30
2022-09-28T16:36:45.732Z,1.10
2022-09-28T16:41:51.349Z,1.40
2022-09-28T16:46:58.372Z,1.50
2022-09-28T16:52:01.175Z,1.47
2022-09-28T16:57:05.742Z,1.33
2022-09-28T17:02:45.285Z,1.50
2022-09-28T17:07:45.345Z,1.50
2022-09-28T17:12:47.981Z,1.70
2022-09-28T17:17:52.024Z,1.77
2022-09-28T17:22:55.004Z,1.80
2022-09-28T17:27:59.162Z,2.00
2022-09-28T17:33:03.246Z,2.10
2022-09-28T17:38:05.908Z,1.93
2022-09-28T17:43:08.816Z,2.03
2022-09-28T17:48:15.676Z,2.30
2022-09-28T17:53:18.566Z,2.70
2022-09-28T17:58:22.966Z,2.57
2022-09-28T18:03:26.963Z,2.90
2022-09-28T18:08:29.820Z,3.50
2022-09-28T18:13:32.674Z,3.00
2022-09-28T18:18:39.718Z,4.27
2022-09-28T18:23:42.677Z,3.97
2022-09-28T18:28:45.476Z,4.10
2022-09-28T18:33:49.727Z,6.00
2022-09-28T18:38:53.092Z,8.37
2022-09-28T18:44:00.531Z,19.37
2022-09-28T18:49:05.527Z,10.70
2022-09-28T18:54:12.316Z,10.43
2022-09-28T18:59:18.548Z,10.33
2022-09-28T19:04:23.812Z,8.63
2022-09-28T19:09:29.140Z,7.20
2022-09-28T19:14:32.165Z,7.87
2022-09-28T19:19:39.325Z,8.17
2022-09-28T19:24:42.193Z,8.30
2022-09-28T19:29:45.000Z,7.40
2022-09-28T19:34:49.601Z,7.27
2022-09-28T19:39:52.400Z,7.40
2022-09-28T19:44:55.110Z,7.10
2022-09-28T19:49:59.215Z,8.80
2022-09-28T19:55:02.026Z,9.77
2022-09-28T20:00:05.640Z,9.47
2022-09-28T20:05:10.119Z,9.57
2022-09-28T20:10:13.190Z,10.63
2022-09-28T20:15:16.548Z,9.97
2022-09-28T20:20:20.629Z,11.13
2022-09-28T20:25:23.364Z,10.00
2022-09-28T20:30:26.097Z,12.90
2022-09-28T20:35:32.973Z,26.53
2022-09-28T20:40:36.470Z,17.73
2022-09-28T20:45:39.301Z,7.43
2022-09-28T20:50:43.594Z,8.13
2022-09-28T20:55:46.437Z,15.80
2022-09-28T21:00:49.187Z,10.80
2022-09-28T21:05:53.291Z,10.30
2022-09-28T21:10:56.003Z,20.77
2022-09-28T21:16:02.799Z,10.23
2022-09-28T21:21:08.828Z,10.70
2022-09-28T21:26:14.193Z,9.20
2022-09-28T21:31:17.017Z,8.80
2022-09-28T21:36:21.095Z,6.60
2022-09-28T21:41:24.514Z,5.90
2022-09-28T21:46:33.376Z,6.20
2022-09-28T21:51:38.071Z,6.63
2022-09-28T21:56:40.810Z,7.00
2022-09-28T22:01:44.180Z,6.67
2022-09-28T22:06:48.308Z,6.47
2022-09-28T22:11:51.271Z,6.27
2022-09-28T22:16:54.019Z,7.10
2022-09-28T22:21:58.130Z,6.20
2022-09-28T22:27:01.027Z,6.37
2022-09-28T22:32:03.835Z,5.70
2022-09-28T22:37:07.954Z,6.53
2022-09-28T22:42:10.691Z,6.07
2022-09-28T22:47:13.674Z,5.23
2022-09-28T22:52:18.092Z,5.87
2022-09-28T22:57:20.994Z,5.73
2022-09-28T23:02:23.844Z,5.30
2022-09-28T23:07:29.143Z,5.10
2022-09-28T23:12:33.279Z,6.37
2022-09-28T23:17:36.287Z,5.30
2022-09-28T23:22:40.464Z,5.47
2022-09-28T23:27:46.317Z,5.40
2022-09-28T23:32:49.608Z,5.40
2022-09-28T23:37:53.682Z,5.23
2022-09-28T23:42:56.445Z,4.83
2022-09-28T23:47:59.209Z,4.57
2022-09-28T23:53:03.322Z,4.53
2022-09-28T23:58:06.210Z,4.17
